Latest Weather Observations for Port Macquarie Airport

IDN60801

Issued at 6:35 pm EST Tuesday 29 July 2014 (issued every 30 minutes, with the page automatically refreshed every 10 minutes)

About weather observations | Map of weather stations | Latest weather observations for NSW | Other Formats
Station Details ID: 060139 Name: PORT MACQUARIE AIRPORT AWS Lat: -31.43 Lon: 152.87 Height: 4.2 m
Data from the previous 72 hours. | See also: Recent months at Port Macquarie Airport
Date/Time
EST
Temp
°C
App
Temp
°C
Dew
Point
Rel
Hum
%
Delta-T
°C
Wind Press
QNH
hPa
Press
MSL
hPa
Rain
since 9 am
mm
Dir
 
Spd
km/h
Gust
km/h
Spd
kts
Gust
kts
29/06:30pm 14.4 12.7 8.4 67 3.0 N 7 11 4 6 1018.8 - 0.0
29/06:00pm 15.7 14.0 8.2 61 3.8 N 7 11 4 6 1018.3 1018.3 0.0
29/05:30pm 16.0 13.8 8.0 59 4.0 NNE 9 11 5 6 1018.0 - 0.0
29/05:00pm 18.0 15.1 8.3 53 5.0 NNE 13 17 7 9 1017.7 1017.7 0.0
29/04:30pm 18.9 15.1 7.7 48 5.7 NE 17 22 9 12 1017.5 - 0.0
29/04:00pm 19.6 16.0 8.3 48 5.8 NE 17 20 9 11 1017.5 1017.5 0.0
29/03:30pm 19.9 15.8 7.9 46 6.2 NE 19 24 10 13 1017.0 - 0.0
29/03:00pm 20.3 16.1 7.3 43 6.6 NE 19 24 10 13 1016.8 1016.8 0.0
29/02:30pm 22.6 20.0 6.0 34 8.4 NNW 9 17 5 9 1016.9 - 0.0
29/02:00pm 22.2 18.5 2.3 27 9.3 NW 11 19 6 10 1017.4 1017.4 0.0
29/01:30pm 22.0 17.9 2.2 27 9.3 W 13 19 7 10 1017.9 - 0.0
29/01:00pm 21.7 17.4 3.4 30 8.7 WSW 15 22 8 12 1018.3 1018.3 0.0
29/12:30pm 21.2 16.9 3.4 31 8.5 WNW 15 22 8 12 1018.8 - 0.0
29/12:00pm 20.5 15.4 3.3 32 8.1 W 19 28 10 15 1019.3 1019.3 0.0
29/11:30am 19.7 15.3 5.0 38 7.2 WNW 17 26 9 14 1019.9 - 0.0
29/11:00am 18.2 14.9 6.4 46 5.8 WNW 13 20 7 11 1020.7 1020.7 0.0
29/10:30am 16.8 13.3 5.4 47 5.5 NW 13 20 7 11 1021.2 - 0.0
29/10:00am 15.3 12.3 6.1 54 4.4 NNW 11 15 6 8 1021.5 1021.5 0.0
29/09:30am 14.4 11.7 7.5 63 3.4 NW 11 15 6 8 1021.7 - 0.0
29/09:00am 12.1 9.7 6.8 70 2.5 NW 9 13 5 7 1021.7 1021.7 0.0
29/08:30am 9.9 7.2 5.7 75 1.9 NW 9 13 5 7 1021.6 - 0.0
29/08:00am 6.8 3.5 4.5 85 1.0 NW 11 15 6 8 1021.6 1021.6 0.0
29/07:30am 5.9 2.4 3.6 85 1.0 NW 11 13 6 7 1021.4 - 0.0
29/07:00am 5.0 1.4 3.0 87 0.8 NW 11 15 6 8 1021.1 1021.1 0.0
29/06:30am 7.0 3.1 3.3 77 1.6 WNW 13 17 7 9 1020.9 - 0.0
29/06:00am 6.4 2.5 3.6 82 1.2 WNW 13 17 7 9 1020.8 1020.8 0.0
29/05:30am 7.0 3.5 3.4 78 1.5 W 11 15 6 8 1020.4 - 0.0
29/05:00am 6.7 3.3 3.9 82 1.2 W 11 13 6 7 1020.0 1020.0 0.0
29/04:30am 4.1 1.4 2.5 89 0.6 WNW 6 11 3 6 1019.8 - 0.0
29/04:00am 4.7 3.1 2.7 87 0.8 CALM 0 0 0 0 1019.8 1019.8 0.0
29/03:30am 4.9 2.7 3.1 88 0.7 N 4 9 2 5 1019.8 - 0.0
29/03:00am 5.1 2.7 2.3 82 1.1 WNW 4 9 2 5 1019.6 1019.6 0.0
29/02:30am 8.3 4.9 3.9 74 1.9 W 11 17 6 9 1019.7 - 0.0
29/02:00am 6.9 3.6 2.6 74 1.8 WNW 9 11 5 6 1019.6 1019.6 0.0
29/01:30am 9.5 5.8 4.7 72 2.1 W 13 17 7 9 1019.9 - 0.0
29/01:00am 9.3 5.8 5.3 76 1.8 W 13 17 7 9 1020.0 1020.0 0.0
29/12:30am 9.6 6.2 6.1 79 1.6 W 13 17 7 9 1020.2 - 0.0
29/12:00am 8.4 5.8 6.0 85 1.1 W 9 13 5 7 1020.4 1020.4 0.0
 
Date/Time
EST
Temp
°C
App
Temp
°C
Dew
Point
Rel
Hum
%
Delta-T
°C
Wind Press
QNH
hPa
Press
MSL
hPa
Rain
since 9 am
mm
Dir
 
Spd
km/h
Gust
km/h
Spd
kts
Gust
kts
28/11:30pm 7.9 6.7 6.5 91 0.6 SSW 2 6 1 3 1020.6 - 0.0
28/11:00pm 7.6 6.5 6.9 95 0.3 WSW 2 7 1 4 1020.8 1020.8 0.0
28/10:30pm 6.5 4.2 5.8 95 0.3 WSW 7 9 4 5 1020.8 - 0.0
28/10:00pm 6.7 5.7 5.8 94 0.4 CALM 0 0 0 0 1020.8 1020.8 0.0
28/09:59pm 6.7 5.7 5.8 94 0.4 CALM 0 0 0 0 1020.8 - 0.0
28/09:41pm 6.8 5.8 5.7 93 0.5 CALM 0 0 0 0 1020.8 - 0.0
28/09:30pm 7.4 6.6 6.5 94 0.4 CALM 0 0 0 0 1020.8 - 0.0
28/09:00pm 7.4 6.5 6.2 92 0.5 CALM 0 0 0 0 1020.9 1020.9 0.0
28/08:30pm 7.8 7.0 6.4 91 0.6 CALM 0 0 0 0 1020.8 - 0.0
28/08:00pm 8.9 8.0 7.8 93 0.5 SW 2 6 1 3 1020.5 1020.5 0.0
28/07:30pm 9.0 6.8 7.8 92 0.6 SW 9 11 5 6 1020.4 - 0.0
28/07:00pm 9.2 7.3 7.6 90 0.8 SW 7 9 4 5 1020.1 1020.1 0.0
28/06:30pm 10.3 8.7 8.6 89 0.8 SW 7 7 4 4 1019.9 - 0.0
28/06:00pm 11.5 10.1 8.7 83 1.4 SW 6 7 3 4 1019.5 1019.5 0.0
28/05:30pm 13.0 11.1 7.5 69 2.7 SSE 7 9 4 5 1019.5 - 0.0
28/05:00pm 16.0 14.5 9.0 63 3.6 SE 7 9 4 5 1019.3 1019.3 0.0
28/04:30pm 17.1 14.9 9.5 61 4.0 E 11 15 6 8 1019.0 - 0.0
28/04:00pm 17.8 14.7 8.9 56 4.6 E 15 20 8 11 1018.7 1018.7 0.0
28/03:30pm 18.2 15.3 9.5 57 4.6 E 15 19 8 10 1018.6 - 0.0
28/03:00pm 18.4 14.6 8.9 54 4.9 ENE 19 22 10 12 1018.6 1018.6 0.0
28/02:30pm 18.9 15.6 9.4 54 5.0 ENE 17 20 9 11 1018.6 - 0.0
28/02:00pm 21.4 18.9 3.6 31 8.5 WSW 6 13 3 7 1018.6 1018.6 0.0
28/01:30pm 20.5 17.8 3.7 33 8.0 W 7 15 4 8 1018.7 - 0.0
28/01:00pm 20.2 17.5 5.4 38 7.3 W 9 17 5 9 1019.3 1019.3 0.0
28/12:30pm 19.4 15.7 4.3 37 7.2 W 13 24 7 13 1019.6 - 0.0
28/12:00pm 18.6 14.5 4.4 39 6.7 WNW 15 20 8 11 1020.0 1020.0 0.0
28/11:30am 18.1 14.8 4.7 41 6.4 NW 11 15 6 8 1020.8 - 0.0
28/11:00am 17.0 13.7 4.7 44 5.8 W 11 15 6 8 1021.8 1021.8 0.0
28/10:30am 16.6 12.9 6.1 50 5.1 W 15 20 8 11 1022.5 - 0.0
28/10:00am 15.6 12.5 7.1 57 4.2 WNW 13 17 7 9 1022.7 1022.7 0.0
28/09:30am 14.1 11.7 6.9 62 3.5 W 9 13 5 7 1022.8 - 0.0
28/09:00am 12.1 8.8 6.4 68 2.7 WNW 13 17 7 9 1022.8 1022.8 0.0
28/08:30am 10.6 7.7 6.6 76 1.9 WNW 11 17 6 9 1022.8 - 0.0
28/08:00am 8.8 6.6 6.4 85 1.1 NNW 7 9 4 5 1022.5 1022.5 0.0
28/07:30am 8.2 7.2 5.7 84 1.1 CALM 0 0 0 0 1022.4 - 0.0
28/07:00am 7.5 4.7 5.0 84 1.1 WNW 9 17 5 9 1022.1 1022.1 0.0
28/06:30am 8.0 3.8 5.5 84 1.1 W 17 26 9 14 1022.4 - 0.0
28/06:00am 6.0 3.6 4.5 90 0.6 WNW 6 9 3 5 1021.9 1021.9 0.0
28/05:30am 6.2 4.3 4.8 91 0.6 WNW 4 7 2 4 1021.8 - 0.0
28/05:00am 6.5 4.2 5.6 94 0.4 W 7 11 4 6 1021.8 1021.8 0.0
28/04:30am 5.4 2.1 4.5 94 0.4 NW 11 13 6 7 1021.2 - 0.0
28/04:00am 5.9 4.4 5.2 95 0.3 NNW 2 7 1 4 1021.3 1021.3 0.0
28/03:30am 6.1 5.0 5.1 93 0.4 CALM 0 4 0 2 1021.4 - 0.0
28/03:00am 6.5 4.2 5.5 93 0.4 NNW 7 7 4 4 1021.6 1021.6 0.0
28/02:30am 6.5 4.2 5.5 93 0.4 NW 7 9 4 5 1022.0 - 0.0
28/02:00am 6.7 4.4 5.5 92 0.5 NW 7 11 4 6 1021.8 1021.8 0.0
28/01:30am 6.9 4.6 5.7 92 0.5 WNW 7 11 4 6 1022.2 - 0.0
28/01:00am 7.6 5.9 5.9 89 0.8 NNW 4 7 2 4 1022.4 1022.4 0.0
28/12:30am 7.7 6.5 6.3 91 0.6 WNW 2 7 1 4 1022.6 - 0.0
28/12:00am 8.2 6.6 6.5 89 0.8 NNW 4 6 2 3 1023.0 1023.0 0.0
 
Date/Time
EST
Temp
°C
App
Temp
°C
Dew
Point
Rel
Hum
%
Delta-T
°C
Wind Press
QNH
hPa
Press
MSL
hPa
Rain
since 9 am
mm
Dir
 
Spd
km/h
Gust
km/h
Spd
kts
Gust
kts
27/11:30pm 8.4 7.6 6.7 89 0.8 CALM 0 0 0 0 1023.3 - 0.0
27/11:00pm 8.1 7.4 6.9 92 0.6 CALM 0 6 0 3 1023.6 1023.6 0.0
27/10:30pm 7.7 7.0 6.8 94 0.4 CALM 0 0 0 0 1023.8 - 0.0
27/10:00pm 7.8 7.2 7.2 96 0.3 CALM 0 0 0 0 1024.0 1024.0 0.0
27/09:30pm 7.4 6.2 6.5 94 0.4 SW 2 6 1 3 1024.1 - 0.0
27/09:00pm 7.4 6.5 5.9 90 0.7 CALM 0 0 0 0 1024.1 1024.1 0.0
27/08:30pm 9.0 7.7 7.8 92 0.6 WNW 4 7 2 4 1024.0 - 0.0
27/08:00pm 9.5 6.7 8.4 93 0.5 NW 13 15 7 8 1023.7 1023.7 0.0
27/07:30pm 8.9 7.1 7.8 93 0.5 SSW 7 9 4 5 1023.1 - 0.0
27/07:00pm 9.6 8.0 8.2 91 0.7 WSW 6 7 3 4 1023.0 1023.0 0.0
27/06:30pm 10.6 10.3 8.7 88 0.9 CALM 0 0 0 0 1022.8 - 0.0
27/06:00pm 11.8 11.1 8.5 80 1.6 SE 2 6 1 3 1022.5 1022.5 0.0
27/05:30pm 13.7 13.4 8.7 72 2.5 CALM 0 0 0 0 1022.2 - 0.0
27/05:00pm 15.7 13.6 8.4 62 3.7 SSE 9 11 5 6 1022.0 1022.0 0.0
27/04:30pm 18.1 15.6 6.6 47 5.7 SSW 9 13 5 7 1021.8 - 0.0
27/04:00pm 18.8 15.8 6.0 43 6.3 SSW 11 17 6 9 1021.7 1021.7 0.0
27/03:30pm 19.4 16.2 6.8 44 6.3 SW 13 19 7 10 1021.6 - 0.0
27/03:00pm 19.4 15.4 6.8 44 6.3 WSW 17 24 9 13 1021.6 1021.6 0.0
27/02:30pm 19.4 15.4 6.5 43 6.4 SW 17 22 9 12 1021.5 - 0.0
27/02:00pm 19.4 15.1 7.2 45 6.2 SSW 19 26 10 14 1021.5 1021.5 0.0
27/01:30pm 18.8 14.3 6.0 43 6.3 SSW 19 26 10 14 1021.4 - 0.0
27/01:00pm 19.1 15.1 6.6 44 6.2 SW 17 26 9 14 1021.8 1021.8 0.0
27/12:30pm 18.6 14.0 6.4 45 6.1 SSW 20 24 11 13 1022.2 - 0.0
27/12:00pm 18.5 14.7 7.6 49 5.5 SW 17 26 9 14 1022.8 1022.8 0.0
27/11:30am 18.1 13.9 7.5 50 5.4 SSW 19 24 10 13 1023.3 - 0.0
27/11:00am 17.0 13.7 7.9 55 4.6 WSW 15 22 8 12 1023.8 1023.8 0.0
27/10:30am 16.7 12.7 8.4 58 4.2 WSW 19 26 10 14 1024.1 - 0.0
27/10:00am 15.6 13.1 9.7 68 3.0 W 13 15 7 8 1024.2 1024.2 0.0
27/09:30am 14.9 12.5 9.9 72 2.6 W 13 19 7 10 1024.3 - 0.0
27/09:00am 13.7 11.4 9.0 73 2.4 W 11 15 6 8 1024.3 1024.3 10.2
27/08:30am 12.2 9.0 8.3 77 1.9 W 15 19 8 10 1024.2 - 10.2
27/08:00am 11.1 8.2 8.0 81 1.5 W 13 17 7 9 1024.1 1024.1 10.2
27/07:30am 10.3 7.3 7.5 83 1.3 W 13 20 7 11 1023.7 - 10.2
27/07:00am 9.9 5.7 7.5 85 1.1 W 19 24 10 13 1023.6 1023.6 10.2
27/06:30am 9.5 6.1 7.6 88 0.9 W 15 19 8 10 1023.4 - 10.2
27/06:00am 9.3 5.9 7.7 90 0.8 WNW 15 19 8 10 1022.9 1022.9 10.2
27/05:30am 9.7 6.4 8.1 90 0.8 W 15 20 8 11 1022.7 - 10.2
27/05:00am 10.0 7.1 8.3 89 0.8 W 13 20 7 11 1022.5 1022.5 10.2
27/04:30am 9.9 7.5 8.5 91 0.7 W 11 15 6 8 1022.3 - 10.2
27/04:00am 10.3 6.8 8.9 91 0.7 W 17 22 9 12 1022.2 1022.2 10.0
27/03:30am 10.7 7.3 9.3 91 0.7 W 17 22 9 12 1022.3 - 10.0
27/03:00am 10.7 7.4 9.5 92 0.6 W 17 24 9 13 1022.4 1022.4 10.0
27/02:30am 10.6 8.0 9.5 93 0.6 WNW 13 17 7 9 1022.5 - 10.0
27/02:00am 10.8 8.7 9.7 93 0.6 WNW 11 15 6 8 1022.5 1022.5 10.0
27/01:30am 11.4 8.2 10.1 92 0.7 WNW 17 20 9 11 1022.6 - 10.0
27/01:00am 11.4 8.7 10.3 93 0.6 WNW 15 20 8 11 1022.7 1022.7 10.0
27/12:30am 11.9 9.7 10.8 93 0.6 W 13 17 7 9 1022.8 - 10.0
27/12:00am 12.2 9.7 11.1 93 0.6 W 15 20 8 11 1022.9 1022.9 10.0
 
Date/Time
EST
Temp
°C
App
Temp
°C
Dew
Point
Rel
Hum
%
Delta-T
°C
Wind Press
QNH
hPa
Press
MSL
hPa
Rain
since 9 am
mm
Dir
 
Spd
km/h
Gust
km/h
Spd
kts
Gust
kts
26/11:30pm 12.5 9.7 11.4 93 0.6 W 17 22 9 12 1023.0 - 10.0
26/11:00pm 12.6 9.9 11.7 94 0.5 W 17 22 9 12 1023.0 1023.0 10.0
26/10:30pm 12.5 10.2 11.7 95 0.4 WNW 15 20 8 11 1023.3 - 10.0
26/10:00pm 12.5 10.6 11.7 95 0.4 WNW 13 17 7 9 1023.1 1023.1 10.0
26/09:30pm 12.9 10.7 12.0 94 0.5 W 15 20 8 11 1023.0 - 9.8
26/09:00pm 12.9 10.7 12.1 95 0.4 W 15 20 8 11 1023.1 1023.1 9.8
26/08:30pm 12.9 11.5 12.3 96 0.3 WNW 11 15 6 8 1023.0 - 9.8
26/08:00pm 12.9 11.9 12.3 96 0.3 NW 9 13 5 7 1023.1 1023.1 9.8
26/07:30pm 13.2 11.6 12.7 97 0.3 NW 13 17 7 9 1023.2 - 9.6
26/07:00pm 12.8 12.2 12.2 96 0.3 WSW 7 9 4 5 1023.1 1023.1 9.4

Other Formats:

Comma delimited format used in spreadsheet applications
http://www.bom.gov.au/fwo/IDN60801/IDN60801.94786.axf

JavaScript Object Notation format (JSON) in row-major order
http://www.bom.gov.au/fwo/IDN60801/IDN60801.94786.json